Time;durP1;ratioP1;P1;durP2;ratioP2;P2;SDS_P1;SDS_P2;PMS_P1;PMS_P2;Temp;Humidity;BMP_temperature;BMP_pressure;BME280_temperature;BME280_humidity;BME280_pressure;Samples;Min_cycle;Max_cycle;Signal;HPM_P1;HPM_P2
2023/06/27 00:02:26;;;;;;;;;;;;;;;18.39;89.90;95121.38;5115861;28;1067;-53
2023/06/27 00:04:56;;;;;;;;;;;;;;;18.18;89.94;95118.91;5116016;28;1042;-54
2023/06/27 00:07:28;;;;;;;;;;;;;;;17.90;91.63;95117.25;5115853;28;1043;-53
2023/06/27 00:09:55;;;;;;;;;;;;;;;18.26;88.84;95118.69;5115804;28;1909;-54
2023/06/27 00:12:21;;;;;;;;;;;;;;;18.29;89.29;95119.09;5115705;28;980;-53
2023/06/27 00:14:47;;;;;;;;;;;;;;;17.95;90.64;95120.16;5115814;28;1054;-53
2023/06/27 00:17:16;;;;;;;;;;;;;;;17.93;91.35;95111.44;5115360;28;1096;-54
2023/06/27 00:19:44;;;;;;;;;;;;;;;18.01;90.50;95113.91;5115399;28;1021;-54
2023/06/27 00:22:11;;;;;;;;;;;;;;;18.05;90.15;95108.94;5115579;28;961;-53
2023/06/27 00:24:37;;;;;;;;;;;;;;;18.08;89.98;95112.06;5115579;28;1004;-53
2023/06/27 00:27:04;;;;;;;;;;;;;;;18.00;90.46;95114.94;5114109;28;1045;-53
2023/06/27 00:29:30;;;;;;;;;;;;;;;17.79;91.32;95118.66;5115171;28;1913;-53
2023/06/27 00:31:56;;;;;;;;;;;;;;;17.50;92.83;95120.69;5115140;28;905;-53
2023/06/27 00:34:22;;;;;;;;;;;;;;;17.37;93.38;95124.19;5115096;28;964;-53
2023/06/27 00:36:48;;;;;;;;;;;;;;;17.48;92.22;95124.66;5115133;28;1092;-53
2023/06/27 00:39:14;;;;;;;;;;;;;;;17.73;91.04;95123.00;5115239;28;1108;-54
2023/06/27 00:41:40;;;;;;;;;;;;;;;17.72;91.40;95126.78;5115018;28;1080;-54
2023/06/27 00:44:07;;;;;;;;;;;;;;;17.47;91.84;95123.81;5115112;28;1055;-53
2023/06/27 00:46:36;;;;;;;;;;;;;;;17.37;92.71;95118.78;5114852;28;1255;-53
2023/06/27 00:49:03;;;;;;;;;;;;;;;17.52;92.94;95117.78;5114219;28;1993;-53
2023/06/27 00:51:29;;;;;;;;;;;;;;;17.43;92.19;95113.59;5114410;28;1864;-53
2023/06/27 00:53:56;;;;;;;;;;;;;;;17.38;93.13;95122.34;5115032;28;1020;-53
2023/06/27 00:56:22;;;;;;;;;;;;;;;17.37;92.51;95116.09;5114548;28;1425;-53
2023/06/27 00:58:48;;;;;;;;;;;;;;;17.46;92.92;95121.31;5114486;28;1210;-53
2023/06/27 01:01:14;;;;;;;;;;;;;;;17.45;92.36;95122.34;5114463;28;1092;-53
2023/06/27 01:03:40;;;;;;;;;;;;;;;17.26;92.25;95119.38;5112905;28;2940;-53
2023/06/27 01:06:14;;;;;;;;;;;;;;;17.15;93.31;95120.81;5094338;28;1073;-53
2023/06/27 01:08:42;;;;;;;;;;;;;;;16.83;94.72;95119.66;5094108;28;1910;-53
2023/06/27 01:11:14;;;;;;;;;;;;;;;17.20;92.93;95120.19;5094151;28;1116;-53
2023/06/27 01:13:47;;;;;;;;;;;;;;;17.26;92.74;95116.69;5094191;28;1024;-53
2023/06/27 01:16:15;;;;;;;;;;;;;;;17.23;92.31;95116.28;5093914;28;1037;-53
2023/06/27 01:18:42;;;;;;;;;;;;;;;17.27;93.07;95117.53;5094174;28;988;-53
2023/06/27 01:21:08;;;;;;;;;;;;;;;17.22;91.73;95110.03;5093893;28;1037;-53
2023/06/27 01:23:39;;;;;;;;;;;;;;;16.88;93.29;95108.22;5094091;28;1024;-53
2023/06/27 01:26:07;;;;;;;;;;;;;;;16.87;94.45;95104.72;5093974;28;1063;-53
2023/06/27 01:28:33;;;;;;;;;;;;;;;16.89;94.61;95105.34;5106369;28;2990;-53
2023/06/27 01:31:03;;;;;;;;;;;;;;;16.65;93.98;95103.94;5114062;28;1913;-53
2023/06/27 01:33:32;;;;;;;;;;;;;;;16.50;95.00;95104.06;5114305;28;972;-53
2023/06/27 01:36:04;;;;;;;;;;;;;;;16.36;96.41;95108.56;5114348;28;1107;-53
2023/06/27 01:38:35;;;;;;;;;;;;;;;16.52;96.11;95104.72;5114262;28;1015;-53
2023/06/27 01:41:02;;;;;;;;;;;;;;;16.51;95.33;95104.91;5114309;28;1007;-53
2023/06/27 01:43:29;;;;;;;;;;;;;;;16.55;95.95;95098.91;5113793;28;1092;-53
2023/06/27 01:45:55;;;;;;;;;;;;;;;16.72;94.64;95101.28;5113833;28;1058;-53
2023/06/27 01:48:22;;;;;;;;;;;;;;;16.63;94.59;95106.00;5113767;28;1010;-53
2023/06/27 01:50:48;;;;;;;;;;;;;;;16.52;95.81;95099.34;5113817;27;1909;-53
2023/06/27 01:53:14;;;;;;;;;;;;;;;16.67;94.45;95093.78;5103059;28;2905;-53
2023/06/27 01:55:40;;;;;;;;;;;;;;;16.71;93.61;95095.06;5093383;28;1028;-53
2023/06/27 01:58:07;;;;;;;;;;;;;;;16.50;94.00;95101.38;5111945;28;1547;-53
2023/06/27 02:00:33;;;;;;;;;;;;;;;16.44;95.38;95098.66;5113426;28;1119;-52
2023/06/27 02:02:59;;;;;;;;;;;;;;;16.45;95.67;95098.47;5111561;28;2751;-53
2023/06/27 02:05:25;;;;;;;;;;;;;;;16.53;94.88;95098.28;5109848;28;2752;-53
2023/06/27 02:07:51;;;;;;;;;;;;;;;16.55;95.08;95101.63;5093456;28;972;-53
2023/06/27 02:10:17;;;;;;;;;;;;;;;16.63;94.06;95100.63;5093501;28;1918;-53
2023/06/27 02:12:43;;;;;;;;;;;;;;;16.26;94.89;95112.63;5093242;28;1051;-53
2023/06/27 02:15:09;;;;;;;;;;;;;;;16.14;96.38;95112.34;5093610;28;1318;-53
2023/06/27 02:17:35;;;;;;;;;;;;;;;16.15;96.00;95112.16;5093524;28;1118;-53
2023/06/27 02:20:01;;;;;;;;;;;;;;;16.18;95.57;95119.88;5093172;28;1964;-53
2023/06/27 02:22:27;;;;;;;;;;;;;;;16.13;96.38;95111.53;5093354;28;1293;-53
2023/06/27 02:24:53;;;;;;;;;;;;;;;15.97;97.26;95114.50;5093489;28;1035;-53
2023/06/27 02:27:19;;;;;;;;;;;;;;;15.88;97.56;95118.38;5093089;28;956;-53
2023/06/27 02:29:45;;;;;;;;;;;;;;;16.05;97.28;95117.06;5093350;28;1914;-53
2023/06/27 02:32:11;;;;;;;;;;;;;;;16.15;96.42;95120.25;5093424;28;1020;-53
2023/06/27 02:34:37;;;;;;;;;;;;;;;16.20;96.38;95122.34;5093088;28;1123;-53
2023/06/27 02:37:04;;;;;;;;;;;;;;;16.03;96.15;95124.53;5093054;28;1629;-53
2023/06/27 02:39:30;;;;;;;;;;;;;;;15.87;97.10;95128.31;5093058;28;1228;-53
2023/06/27 02:41:56;;;;;;;;;;;;;;;15.70;98.12;95127.72;5093323;28;960;-53
2023/06/27 02:44:22;;;;;;;;;;;;;;;15.61;99.02;95123.50;5093269;28;1055;-53
2023/06/27 02:46:47;;;;;;;;;;;;;;;15.89;97.82;95128.13;5093279;28;1298;-53
2023/06/27 02:49:14;;;;;;;;;;;;;;;15.98;97.55;95118.88;5092795;28;1929;-53
2023/06/27 02:51:40;;;;;;;;;;;;;;;16.11;96.42;95129.78;5092866;28;1120;-53
2023/06/27 02:54:06;;;;;;;;;;;;;;;16.19;95.55;95131.47;5092983;28;1041;-53
2023/06/27 02:56:32;;;;;;;;;;;;;;;16.19;95.30;95124.22;5098150;28;1803;-53
2023/06/27 02:58:58;;;;;;;;;;;;;;;15.95;96.41;95136.28;5113042;28;1226;-53
2023/06/27 03:01:24;;;;;;;;;;;;;;;15.89;96.34;95138.91;5113272;28;1060;-53
2023/06/27 03:03:50;;;;;;;;;;;;;;;15.74;97.11;95136.28;5113205;28;1072;-53
2023/06/27 03:06:19;;;;;;;;;;;;;;;15.74;97.28;95131.72;5113130;28;1030;-52
2023/06/27 03:08:45;;;;;;;;;;;;;;;15.92;97.22;95133.97;5113372;28;1989;-52
2023/06/27 03:11:11;;;;;;;;;;;;;;;15.99;96.43;95132.16;5112980;28;1135;-52
2023/06/27 03:13:37;;;;;;;;;;;;;;;15.82;96.50;95136.16;5115008;28;1033;-53
2023/06/27 03:16:03;;;;;;;;;;;;;;;15.69;97.81;95134.16;5116920;28;1028;-52
2023/06/27 03:18:29;;;;;;;;;;;;;;;15.78;98.04;95135.72;5116589;28;1017;-53
2023/06/27 03:20:55;;;;;;;;;;;;;;;15.90;97.28;95136.03;5115725;28;1057;-52
2023/06/27 03:23:21;;;;;;;;;;;;;;;16.16;95.50;95138.13;5116618;28;1060;-52
2023/06/27 03:25:47;;;;;;;;;;;;;;;16.20;96.18;95141.22;5116528;28;964;-53
2023/06/27 03:28:13;;;;;;;;;;;;;;;16.19;95.60;95136.88;5116714;28;1024;-53
2023/06/27 03:30:43;;;;;;;;;;;;;;;16.03;96.38;95134.47;5116536;28;1909;-52
2023/06/27 03:33:09;;;;;;;;;;;;;;;15.85;97.93;95145.72;5116257;27;1036;-52
2023/06/27 03:35:35;;;;;;;;;;;;;;;15.80;98.54;95140.91;5116315;28;1032;-52
2023/06/27 03:38:02;;;;;;;;;;;;;;;15.88;98.75;95146.19;5116581;28;980;-52
2023/06/27 03:40:28;;;;;;;;;;;;;;;16.10;97.65;95133.47;5116077;28;1052;-53
2023/06/27 03:42:56;;;;;;;;;;;;;;;16.23;97.56;95132.75;5116452;28;972;-53
2023/06/27 03:45:22;;;;;;;;;;;;;;;16.33;96.77;95140.50;5116324;28;1043;-53
2023/06/27 03:47:48;;;;;;;;;;;;;;;16.51;96.70;95143.53;5116064;28;1108;-53
2023/06/27 03:50:14;;;;;;;;;;;;;;;16.71;95.83;95134.72;5115767;28;1909;-53
2023/06/27 03:52:40;;;;;;;;;;;;;;;16.81;95.17;95140.59;5116029;28;1052;-53
2023/06/27 03:55:06;;;;;;;;;;;;;;;16.75;95.45;95144.06;5116223;28;1050;-53
2023/06/27 03:57:32;;;;;;;;;;;;;;;16.74;96.25;95134.31;5116044;28;1622;-53
2023/06/27 03:59:59;;;;;;;;;;;;;;;16.98;96.07;95141.13;5115838;28;1242;-53
2023/06/27 04:02:25;;;;;;;;;;;;;;;17.09;95.56;95143.25;5115813;28;1551;-52
2023/06/27 04:04:51;;;;;;;;;;;;;;;17.07;95.92;95136.34;5115941;28;1059;-52
2023/06/27 04:07:17;;;;;;;;;;;;;;;17.34;94.75;95148.94;5115654;28;1032;-53
2023/06/27 04:09:43;;;;;;;;;;;;;;;17.55;93.86;95142.53;5114669;28;1953;-53
2023/06/27 04:12:09;;;;;;;;;;;;;;;17.72;93.53;95140.28;5115897;27;1044;-52
2023/06/27 04:14:35;;;;;;;;;;;;;;;17.83;93.88;95146.13;5115493;28;1040;-53
2023/06/27 04:17:01;;;;;;;;;;;;;;;17.85;93.63;95144.06;5115689;27;1196;-52
2023/06/27 04:19:27;;;;;;;;;;;;;;;18.07;90.87;95144.72;5115622;28;1015;-53
2023/06/27 04:21:53;;;;;;;;;;;;;;;18.46;88.60;95149.28;5115408;28;1100;-53
2023/06/27 04:24:19;;;;;;;;;;;;;;;18.66;88.38;95146.53;5115470;28;1002;-53
2023/06/27 04:26:45;;;;;;;;;;;;;;;18.70;87.70;95152.34;5115668;28;958;-53
2023/06/27 04:29:11;;;;;;;;;;;;;;;18.78;86.87;95154.84;5106322;28;2454;-53
2023/06/27 04:31:37;;;;;;;;;;;;;;;18.99;84.28;95151.06;5095070;28;1369;-53
2023/06/27 04:34:03;;;;;;;;;;;;;;;19.17;82.76;95152.25;5094979;28;971;-53
2023/06/27 04:36:29;;;;;;;;;;;;;;;19.28;83.14;95146.16;5094653;28;1189;-53
2023/06/27 04:38:55;;;;;;;;;;;;;;;19.23;83.63;95149.50;5095002;28;1032;-53
2023/06/27 04:41:21;;;;;;;;;;;;;;;19.21;83.59;95148.06;5094881;28;984;-53
2023/06/27 04:43:47;;;;;;;;;;;;;;;19.11;81.87;95151.25;5093418;28;1044;-53
2023/06/27 04:46:13;;;;;;;;;;;;;;;19.06;82.64;95148.31;5094441;28;1025;-53
2023/06/27 04:48:40;;;;;;;;;;;;;;;19.21;83.75;95151.59;5094765;28;1088;-53
2023/06/27 04:51:06;;;;;;;;;;;;;;;19.44;82.12;95155.66;5094459;28;1910;-53
2023/06/27 04:53:32;;;;;;;;;;;;;;;19.62;80.17;95152.25;5094537;28;1004;-53
2023/06/27 04:55:58;;;;;;;;;;;;;;;19.72;80.80;95159.91;5095161;28;1294;-53
2023/06/27 04:58:24;;;;;;;;;;;;;;;19.60;82.71;95155.19;5114343;28;1597;-53
2023/06/27 05:00:51;;;;;;;;;;;;;;;19.84;81.76;95158.19;5114849;28;1084;-53
2023/06/27 05:03:18;;;;;;;;;;;;;;;19.79;79.43;95161.56;5114774;28;996;-53
2023/06/27 05:05:44;;;;;;;;;;;;;;;19.89;79.48;95159.19;5114843;28;1031;-53
2023/06/27 05:08:10;;;;;;;;;;;;;;;20.09;78.31;95164.50;5103153;28;2904;-53
2023/06/27 05:10:36;;;;;;;;;;;;;;;20.32;79.81;95164.94;5114651;28;1985;-53
2023/06/27 05:13:02;;;;;;;;;;;;;;;20.26;79.60;95169.34;5114750;28;1048;-53
2023/06/27 05:15:28;;;;;;;;;;;;;;;20.65;79.01;95157.34;5114617;28;976;-53
2023/06/27 05:18:15;;;;;;;;;;;;;;;21.07;76.33;95159.44;5114246;28;1050;-52
2023/06/27 05:20:41;;;;;;;;;;;;;;;21.24;76.23;95155.03;5114204;28;1513;-53
2023/06/27 05:23:07;;;;;;;;;;;;;;;21.10;75.93;95156.25;5114373;28;1019;-53
2023/06/27 05:25:33;;;;;;;;;;;;;;;21.16;77.41;95158.06;5114407;28;1035;-53
2023/06/27 05:28:00;;;;;;;;;;;;;;;21.45;75.45;95161.09;5114426;28;1023;-53
2023/06/27 05:30:26;;;;;;;;;;;;;;;21.33;76.06;95154.75;5114128;28;1914;-52
2023/06/27 05:32:52;;;;;;;;;;;;;;;21.38;76.01;95163.03;5114054;28;1041;-53
2023/06/27 05:35:18;;;;;;;;;;;;;;;21.62;75.23;95162.13;5113918;28;941;-53
2023/06/27 05:37:44;;;;;;;;;;;;;;;21.81;74.36;95160.19;5112734;28;1363;-53
2023/06/27 05:40:11;;;;;;;;;;;;;;;21.78;73.66;95168.00;5099127;28;2470;-53
2023/06/27 05:42:37;;;;;;;;;;;;;;;21.42;72.99;95165.09;5093779;28;961;-53
2023/06/27 05:45:03;;;;;;;;;;;;;;;21.50;76.85;95163.97;5093647;28;1084;-53
2023/06/27 05:47:29;;;;;;;;;;;;;;;21.70;74.46;95163.69;5092444;28;985;-53
2023/06/27 05:49:55;;;;;;;;;;;;;;;21.95;73.97;95163.56;5093530;28;1906;-53
2023/06/27 05:52:22;;;;;;;;;;;;;;;21.77;74.21;95158.97;5093416;28;1226;-53
2023/06/27 05:54:50;;;;;;;;;;;;;;;21.83;73.66;95159.94;5093391;28;1069;-53
2023/06/27 05:57:16;;;;;;;;;;;;;;;21.96;76.23;95167.94;5105262;28;1574;-53
2023/06/27 05:59:42;;;;;;;;;;;;;;;22.41;74.72;95175.66;5113629;28;1217;-53
2023/06/27 06:02:08;;;;;;;;;;;;;;;22.37;71.84;95170.91;5113761;28;1116;-53
2023/06/27 06:04:34;;;;;;;;;;;;;;;22.29;73.05;95169.38;5113737;28;988;-53
2023/06/27 06:07:00;;;;;;;;;;;;;;;22.22;73.77;95168.59;5113678;28;1124;-53
2023/06/27 06:09:26;;;;;;;;;;;;;;;22.26;72.57;95171.72;5112513;28;1997;-52
2023/06/27 06:11:52;;;;;;;;;;;;;;;22.31;70.31;95175.41;5113597;28;1193;-53
2023/06/27 06:14:18;;;;;;;;;;;;;;;22.62;75.29;95167.97;5113860;28;1004;-53
2023/06/27 06:16:44;;;;;;;;;;;;;;;22.69;72.15;95165.97;5112565;28;1047;-53
2023/06/27 06:19:11;;;;;;;;;;;;;;;22.81;71.64;95161.34;5113750;28;989;-53
2023/06/27 06:21:37;;;;;;;;;;;;;;;23.27;70.87;95164.28;5113815;28;1047;-52
2023/06/27 06:24:03;;;;;;;;;;;;;;;23.41;70.37;95162.13;5113600;28;1040;-52
2023/06/27 06:26:29;;;;;;;;;;;;;;;23.46;70.79;95155.94;5113776;28;1050;-55
2023/06/27 06:28:55;;;;;;;;;;;;;;;23.61;69.35;95158.97;5113698;28;1987;-54
2023/06/27 06:31:23;;;;;;;;;;;;;;;23.46;68.08;95169.56;5103716;28;2482;-54
2023/06/27 06:33:49;;;;;;;;;;;;;;;23.44;71.43;95155.34;5093266;28;976;-53
2023/06/27 06:36:16;;;;;;;;;;;;;;;23.53;69.96;95159.34;5092920;28;1578;-53
2023/06/27 06:38:41;;;;;;;;;;;;;;;23.49;70.06;95161.72;5092789;28;1482;-54
2023/06/27 06:41:07;;;;;;;;;;;;;;;23.73;70.47;95159.75;5091999;28;1044;-52
2023/06/27 06:43:33;;;;;;;;;;;;;;;23.99;68.52;95162.16;5093105;28;1037;-53
2023/06/27 06:45:59;;;;;;;;;;;;;;;24.09;68.01;95157.72;5092848;28;977;-52
2023/06/27 06:48:25;;;;;;;;;;;;;;;24.16;68.93;95158.38;5094679;28;967;-53
2023/06/27 06:50:52;;;;;;;;;;;;;;;24.05;70.75;95153.00;5096590;28;1979;-52
2023/06/27 06:53:18;;;;;;;;;;;;;;;24.30;69.04;95156.19;5096262;28;960;-52
2023/06/27 06:55:45;;;;;;;;;;;;;;;24.32;67.74;95154.03;5096275;28;1049;-53
2023/06/27 06:58:11;;;;;;;;;;;;;;;24.17;64.96;95148.31;5115667;28;1456;-53
2023/06/27 07:00:37;;;;;;;;;;;;;;;24.17;66.72;95153.78;5117209;28;1055;-52
2023/06/27 07:03:09;;;;;;;;;;;;;;;24.29;65.53;95151.78;5115849;28;1058;-52
2023/06/27 07:05:35;;;;;;;;;;;;;;;24.73;63.22;95151.97;5117220;28;1049;-53
2023/06/27 07:08:05;;;;;;;;;;;;;;;24.77;66.86;95146.81;5111331;28;2475;-53
2023/06/27 07:10:31;;;;;;;;;;;;;;;24.65;63.59;95144.19;5096192;28;1914;-53
2023/06/27 07:12:57;;;;;;;;;;;;;;;25.01;67.68;95147.47;5096438;28;1023;-53
2023/06/27 07:15:23;;;;;;;;;;;;;;;25.14;66.26;95141.63;5096437;28;968;-53
2023/06/27 07:17:52;;;;;;;;;;;;;;;25.22;64.06;95136.81;5096142;28;1056;-53
2023/06/27 07:20:22;;;;;;;;;;;;;;;25.07;61.93;95135.50;5096266;28;1019;-52
2023/06/27 07:22:49;;;;;;;;;;;;;;;25.20;67.08;95133.50;5095996;28;1032;-53
2023/06/27 07:25:15;;;;;;;;;;;;;;;25.26;62.51;95132.50;5096107;28;964;-53
2023/06/27 07:27:41;;;;;;;;;;;;;;;25.70;62.82;95127.81;5096116;28;989;-52
2023/06/27 07:30:08;;;;;;;;;;;;;;;25.64;58.94;95128.84;5095957;28;1910;-53
2023/06/27 07:32:34;;;;;;;;;;;;;;;25.52;60.73;95130.91;5095810;28;1051;-53
2023/06/27 07:35:00;;;;;;;;;;;;;;;25.79;60.46;95127.38;5096029;28;1016;-53
2023/06/27 07:37:26;;;;;;;;;;;;;;;26.07;56.47;95126.34;5095976;28;1027;-53
2023/06/27 07:39:52;;;;;;;;;;;;;;;26.33;56.88;95127.38;5095744;28;1041;-53
2023/06/27 07:42:18;;;;;;;;;;;;;;;26.42;57.00;95123.06;5095949;28;968;-54
2023/06/27 07:44:44;;;;;;;;;;;;;;;26.62;59.04;95133.41;5095768;28;1012;-53
2023/06/27 07:47:10;;;;;;;;;;;;;;;26.71;57.68;95124.69;5095502;28;1028;-53
2023/06/27 07:49:39;;;;;;;;;;;;;;;26.72;56.89;95126.34;5095438;28;1934;-53
2023/06/27 07:52:06;;;;;;;;;;;;;;;26.46;57.61;95124.22;5095422;28;1025;-53
2023/06/27 07:54:33;;;;;;;;;;;;;;;26.55;55.67;95127.28;5095716;28;1046;-52
2023/06/27 07:56:59;;;;;;;;;;;;;;;26.65;51.58;95126.56;5103531;28;1471;-53
2023/06/27 07:59:25;;;;;;;;;;;;;;;26.61;53.59;95123.53;5111745;28;2432;-53
2023/06/27 08:01:51;;;;;;;;;;;;;;;26.86;52.51;95122.03;5114067;28;1130;-53
2023/06/27 08:04:17;;;;;;;;;;;;;;;27.10;52.64;95122.47;5115907;28;1052;-53
2023/06/27 08:06:43;;;;;;;;;;;;;;;27.14;51.36;95131.00;5115950;28;980;-53
2023/06/27 08:09:09;;;;;;;;;;;;;;;27.18;52.19;95121.97;5115788;28;1906;-54
2023/06/27 08:11:35;;;;;;;;;;;;;;;27.34;52.30;95122.91;5115648;28;1000;-54
2023/06/27 08:14:01;;;;;;;;;;;;;;;27.31;52.24;95128.91;5115675;28;1059;-53
2023/06/27 08:16:27;;;;;;;;;;;;;;;27.38;49.20;95123.22;5115636;28;1047;-53
2023/06/27 08:18:53;;;;;;;;;;;;;;;27.38;51.48;95120.47;5115336;28;1096;-53
2023/06/27 08:21:19;;;;;;;;;;;;;;;27.43;54.39;95125.94;5115432;28;1043;-53
2023/06/27 08:23:45;;;;;;;;;;;;;;;27.55;53.80;95125.75;5109174;28;2551;-52
2023/06/27 08:26:15;;;;;;;;;;;;;;;27.56;53.89;95130.94;5094575;28;965;-53
2023/06/27 08:28:44;;;;;;;;;;;;;;;27.08;52.60;95128.22;5095538;28;2559;-53
2023/06/27 08:31:11;;;;;;;;;;;;;;;27.23;52.47;95126.66;5114586;28;1909;-53
2023/06/27 08:33:37;;;;;;;;;;;;;;;27.43;50.75;95131.44;5096405;28;2487;-53
2023/06/27 08:36:03;;;;;;;;;;;;;;;27.57;52.29;95126.31;5094431;28;2009;-53
2023/06/27 08:38:29;;;;;;;;;;;;;;;27.60;48.61;95120.25;5094841;28;1016;-53
2023/06/27 08:40:55;;;;;;;;;;;;;;;27.77;49.90;95126.34;5094600;28;1092;-53
2023/06/27 08:43:21;;;;;;;;;;;;;;;27.88;51.74;95120.91;5094322;28;1128;-53
2023/06/27 08:45:48;;;;;;;;;;;;;;;27.89;51.42;95122.56;5094379;28;1067;-53
2023/06/27 08:48:17;;;;;;;;;;;;;;;27.81;48.46;95122.00;5094278;28;945;-53
2023/06/27 08:50:43;;;;;;;;;;;;;;;27.61;52.87;95119.16;5094444;28;2340;-53
2023/06/27 08:53:14;;;;;;;;;;;;;;;27.43;51.16;95123.22;5094469;28;1139;-53
2023/06/27 08:55:40;;;;;;;;;;;;;;;27.52;51.59;95115.28;5094579;28;980;-53
2023/06/27 08:58:08;;;;;;;;;;;;;;;27.53;49.64;95114.22;5112618;28;1448;-53
2023/06/27 09:00:35;;;;;;;;;;;;;;;27.79;53.26;95115.09;5114887;28;1185;-53
2023/06/27 09:03:01;;;;;;;;;;;;;;;27.86;47.62;95123.91;5114466;28;1071;-53
2023/06/27 09:05:28;;;;;;;;;;;;;;;27.92;51.26;95116.53;5114720;28;952;-53
2023/06/27 09:07:55;;;;;;;;;;;;;;;27.99;48.16;95117.94;5114386;28;1214;-53
2023/06/27 09:10:21;;;;;;;;;;;;;;;28.03;46.61;95119.03;5113460;28;1991;-53
2023/06/27 09:12:47;;;;;;;;;;;;;;;27.88;48.71;95099.72;5114243;28;1029;-53
2023/06/27 09:15:14;;;;;;;;;;;;;;;27.74;51.08;95101.38;5114541;28;965;-53
2023/06/27 09:17:40;;;;;;;;;;;;;;;27.77;51.29;95106.31;5114430;28;983;-53
2023/06/27 09:20:07;;;;;;;;;;;;;;;27.94;51.10;95106.09;5113300;28;2472;-53
2023/06/27 09:22:34;;;;;;;;;;;;;;;27.94;48.90;95098.66;5099874;28;2911;-53
2023/06/27 09:25:09;;;;;;;;;;;;;;;27.79;48.32;95102.19;5093825;28;969;-53
2023/06/27 09:27:36;;;;;;;;;;;;;;;27.87;49.26;95089.00;5094056;28;1093;-53
2023/06/27 09:30:03;;;;;;;;;;;;;;;27.87;48.74;95095.34;5093938;28;1997;-53
2023/06/27 09:32:29;;;;;;;;;;;;;;;27.74;46.86;95104.94;5093451;28;1072;-53
2023/06/27 09:34:55;;;;;;;;;;;;;;;27.70;47.71;95101.06;5093630;28;1116;-53
2023/06/27 09:37:28;;;;;;;;;;;;;;;27.84;47.80;95106.88;5093801;28;957;-53
2023/06/27 09:39:54;;;;;;;;;;;;;;;27.91;48.16;95095.66;5093585;28;1100;-53
2023/06/27 09:42:20;;;;;;;;;;;;;;;28.17;47.56;95100.09;5093667;28;957;-53
2023/06/27 09:44:46;;;;;;;;;;;;;;;28.38;48.70;95103.69;5093785;28;934;-53
2023/06/27 09:47:12;;;;;;;;;;;;;;;28.61;48.89;95107.00;5093600;28;1064;-53
2023/06/27 09:49:41;;;;;;;;;;;;;;;28.45;47.47;95106.16;5093318;28;1906;-53
2023/06/27 09:52:08;;;;;;;;;;;;;;;28.37;49.50;95101.19;5093385;28;1045;-53
2023/06/27 09:54:40;;;;;;;;;;;;;;;28.29;47.70;95096.25;5094159;28;2602;-53
2023/06/27 09:57:11;;;;;;;;;;;;;;;28.12;44.23;95096.53;5112121;28;2910;-53
2023/06/27 09:59:37;;;;;;;;;;;;;;;28.31;44.83;95097.63;5113432;28;1132;-53
2023/06/27 10:02:03;;;;;;;;;;;;;;;28.49;47.05;95096.25;5113906;28;1034;-53
2023/06/27 10:04:29;;;;;;;;;;;;;;;28.57;42.75;95105.88;5111239;28;2427;-53
2023/06/27 10:06:55;;;;;;;;;;;;;;;28.57;42.67;95098.50;5113801;28;1054;-52
2023/06/27 10:09:21;;;;;;;;;;;;;;;28.62;45.75;95097.66;5113508;28;1996;-53
2023/06/27 10:11:48;;;;;;;;;;;;;;;28.77;47.29;95088.56;5103207;28;2853;-53
2023/06/27 10:14:14;;;;;;;;;;;;;;;28.76;45.59;95090.50;5093398;28;1035;-55
2023/06/27 10:16:41;;;;;;;;;;;;;;;28.65;47.08;95086.09;5093518;28;985;-55
2023/06/27 10:19:07;;;;;;;;;;;;;;;28.63;42.85;95099.31;5093517;28;976;-53
2023/06/27 10:21:33;;;;;;;;;;;;;;;28.73;44.45;95080.03;5093434;28;1097;-53
2023/06/27 10:24:00;;;;;;;;;;;;;;;28.84;45.23;95071.75;5097283;28;1024;-52
2023/06/27 10:26:27;;;;;;;;;;;;;;;28.78;41.83;95090.22;5097428;28;1046;-54
2023/06/27 10:28:53;;;;;;;;;;;;;;;28.83;41.57;95092.13;5097277;28;1112;-54
2023/06/27 10:31:39;;;;;;;;;;;;;;;28.81;44.24;95084.13;5097119;28;1981;-54
2023/06/27 10:34:05;;;;;;;;;;;;;;;28.87;41.86;95084.94;5097184;28;1092;-53
2023/06/27 10:36:49;;;;;;;;;;;;;;;28.88;43.32;95086.63;5097322;28;1149;-54
2023/06/27 10:39:25;;;;;;;;;;;;;;;28.92;43.24;95077.50;5097275;28;1067;-54
2023/06/27 10:41:54;;;;;;;;;;;;;;;29.11;44.29;95076.91;5101115;28;2385;-54
2023/06/27 10:44:20;;;;;;;;;;;;;;;29.13;40.17;95088.50;5114161;28;2881;-54
2023/06/27 10:46:46;;;;;;;;;;;;;;;29.09;40.76;95073.63;5117237;28;932;-53
2023/06/27 10:49:12;;;;;;;;;;;;;;;29.10;41.17;95069.75;5117190;28;1913;-53
2023/06/27 10:51:42;;;;;;;;;;;;;;;28.96;39.77;95075.84;5117601;27;1050;-54
2023/06/27 10:54:08;;;;;;;;;;;;;;;28.81;38.38;95075.88;5117167;28;1103;-53
2023/06/27 10:56:37;;;;;;;;;;;;;;;28.75;38.62;95083.31;5116914;28;1473;-54
2023/06/27 10:59:08;;;;;;;;;;;;;;;28.63;39.36;95069.06;5117022;28;1092;-54
2023/06/27 11:01:35;;;;;;;;;;;;;;;28.58;38.96;95069.88;5116879;28;1104;-54
2023/06/27 11:04:17;;;;;;;;;;;;;;;28.79;38.74;95073.41;5117079;28;1092;-54
2023/06/27 11:06:46;;;;;;;;;;;;;;;29.18;37.73;95071.97;5117251;28;1047;-54
2023/06/27 11:09:13;;;;;;;;;;;;;;;29.12;37.99;95062.03;5111869;28;2778;-55
2023/06/27 11:11:39;;;;;;;;;;;;;;;29.38;39.82;95055.34;5096497;28;1051;-52
2023/06/27 11:14:06;;;;;;;;;;;;;;;29.42;41.84;95043.78;5096379;28;1025;-53
2023/06/27 11:16:33;;;;;;;;;;;;;;;29.56;38.89;95053.09;5101208;28;2179;-53
2023/06/27 11:19:00;;;;;;;;;;;;;;;29.63;39.52;95050.81;5099873;28;2828;-53
2023/06/27 11:21:26;;;;;;;;;;;;;;;29.56;40.53;95044.81;5096191;28;1009;-53
2023/06/27 11:23:55;;;;;;;;;;;;;;;29.51;40.78;95042.91;5096201;28;1024;-52
2023/06/27 11:26:22;;;;;;;;;;;;;;;29.46;39.15;95036.59;5096324;28;1008;-52
2023/06/27 11:28:48;;;;;;;;;;;;;;;29.30;38.02;95042.19;5096141;28;1108;-53
2023/06/27 11:31:15;;;;;;;;;;;;;;;29.46;39.12;95034.66;5095188;28;2435;-53
2023/06/27 11:33:41;;;;;;;;;;;;;;;29.48;38.55;95042.66;5095426;28;996;-52
2023/06/27 11:36:08;;;;;;;;;;;;;;;29.57;39.18;95030.75;5096305;28;1374;-52
2023/06/27 11:38:35;;;;;;;;;;;;;;;29.55;37.74;95029.41;5095980;28;1037;-53
2023/06/27 11:41:01;;;;;;;;;;;;;;;29.53;38.10;95017.84;5095914;28;1092;-53
2023/06/27 11:43:27;;;;;;;;;;;;;;;29.53;41.33;95007.63;5095717;28;1096;-53
2023/06/27 11:45:54;;;;;;;;;;;;;;;29.59;38.99;95012.03;5096131;28;969;-53
2023/06/27 11:48:20;;;;;;;;;;;;;;;29.62;38.78;95013.38;5095811;28;1058;-53
2023/06/27 11:51:06;;;;;;;;;;;;;;;29.47;39.40;95014.28;5095929;28;1910;-53
2023/06/27 11:53:33;;;;;;;;;;;;;;;29.32;40.00;95008.88;5095670;28;1027;-53
2023/06/27 11:55:59;;;;;;;;;;;;;;;29.36;38.75;95002.50;5096264;28;1546;-53
2023/06/27 11:58:26;;;;;;;;;;;;;;;29.53;39.96;95007.63;5115705;28;1412;-53
2023/06/27 12:00:52;;;;;;;;;;;;;;;29.49;39.76;95003.00;5115815;28;1013;-53
2023/06/27 12:03:24;;;;;;;;;;;;;;;29.44;40.23;95003.03;5115876;28;957;-53
2023/06/27 12:05:50;;;;;;;;;;;;;;;29.55;38.53;95004.59;5116132;28;972;-53
2023/06/27 12:08:20;;;;;;;;;;;;;;;29.73;39.63;94995.72;5115979;28;981;-53
2023/06/27 12:11:00;;;;;;;;;;;;;;;29.72;40.24;94991.25;5115922;28;1901;-54
2023/06/27 12:13:30;;;;;;;;;;;;;;;29.73;39.14;94990.19;5115893;28;1046;-53
2023/06/27 12:15:56;;;;;;;;;;;;;;;29.72;38.36;94987.69;5115888;28;1034;-53
2023/06/27 12:18:23;;;;;;;;;;;;;;;29.72;39.09;94987.69;5115411;28;1874;-53
2023/06/27 12:20:50;;;;;;;;;;;;;;;29.50;38.59;94990.84;5115438;28;1073;-53
2023/06/27 12:23:16;;;;;;;;;;;;;;;29.45;38.08;94991.72;5114738;28;2799;-53
2023/06/27 12:25:43;;;;;;;;;;;;;;;29.65;36.87;94995.44;5114192;28;2899;-53
2023/06/27 12:28:09;;;;;;;;;;;;;;;29.73;37.09;94989.38;5115623;28;1004;-53
2023/06/27 12:30:35;;;;;;;;;;;;;;;29.92;36.03;94987.59;5115471;27;1988;-53
2023/06/27 12:33:01;;;;;;;;;;;;;;;30.08;35.85;94990.22;5114198;28;987;-53
2023/06/27 12:35:27;;;;;;;;;;;;;;;30.10;37.90;94977.78;5115067;28;1190;-52
2023/06/27 12:37:54;;;;;;;;;;;;;;;30.09;37.44;94975.31;5115041;28;909;-53
2023/06/27 12:40:22;;;;;;;;;;;;;;;29.87;38.22;94967.50;5115274;28;990;-53
2023/06/27 12:42:52;;;;;;;;;;;;;;;29.83;39.02;94964.50;5115066;28;1111;-53
2023/06/27 12:45:18;;;;;;;;;;;;;;;29.71;38.95;94964.84;5114975;28;1007;-53
2023/06/27 12:47:45;;;;;;;;;;;;;;;29.66;39.42;94956.59;5114965;28;1104;-52
2023/06/27 12:50:16;;;;;;;;;;;;;;;29.47;38.92;94964.72;5114702;28;1905;-53
2023/06/27 12:52:47;;;;;;;;;;;;;;;29.37;38.63;94959.28;5115160;28;1017;-52
2023/06/27 12:55:14;;;;;;;;;;;;;;;29.49;39.20;94961.69;5114769;28;1109;-53
2023/06/27 12:57:41;;;;;;;;;;;;;;;29.59;37.15;94964.34;5114913;28;1551;-53